Newcastle University, New South Wales

9:56 AM AEST on August 30, 2016 (GMT +1000)
INEWSOUT101 | | Change Station

Elev 95 ft 32.92 °S, 151.62 °E | Updated 15 seconds ago

Mostly Cloudy
Mostly Cloudy
63.0 °F
Feels Like 63.0 °F
N
3.5
Wind Variable Wind from NNW
Gusts 3.5 mph

Today
High -- | Low -- °F
--% Chance of Precip.
Yesterday
High -- | Low -- °F
Precip. -- in
Pressure 30.30 in
Visibility 6.2 miles
Clouds Few 2000 ft
Mostly Cloudy 23000 ft
Dew Point 54 °F
Humidity 72%
Rainfall 0.00 in
Snow Depth Not available.
6:13 AM 5:35 PM
Waning Crescent, 6% visible
METAR YWLM 292330Z 33006KT 9999 FEW020 BKN230 16/10 Q1026
Pressure 30.30 in
Visibility 6.2 miles
Clouds Few 2000 ft
Mostly Cloudy 23000 ft
Dew Point 54 °F
Humidity 72%
Rainfall 0.00 in
Snow Depth Not available.
6:13 AM 5:35 PM
Waning Crescent, 6% visible
METAR YWLM 292330Z 33006KT 9999 FEW020 BKN230 16/10 Q1026

10-Day Weather Forecast

Almanac

Astronomy

Aug. 30, 2016 Rise Set
Actual Time
Civil Twilight
Nautical Twilight
Astronomical Twilight
Moon
Length of Visible Light
Length of Day
Tomorrow will be .
, % of the Moon is Illuminated

Today's Extremes

Country Highs Country Lows

Community

WunderPhotos

Upload Photos

1,935,695 photos uploaded!

WunderBlog® & News

Nearby

Air Quality

  Air Quality AQ Index Pollutant
Not available.

Snow Depth

Station Depth Elevation

Earthquake Activity

City Distance Mag. Time & Date
Minimum magnitude displayed is 2.5.

Coastal Water Temperatures

Place Temperature

Stations

Nearby Weather Stations

Station Location Temp. Windchill Dew Point Humidity Wind Precip. Elev Updated Type